Time;durP1;ratioP1;P1;durP2;ratioP2;P2;SDS_P1;SDS_P2;PMS_P1;PMS_P2;Temp;Humidity;BMP_temperature;BMP_pressure;BME280_temperature;BME280_humidity;BME280_pressure;Samples;Min_cycle;Max_cycle;Signal;HPM_P1;HPM_P2
2022/03/03 00:00:46;;;;;;;27.50;12.67;;;;;;;5.17;35.84;100673.47;5409424;32;34614;-63
2022/03/03 00:03:49;;;;;;;24.00;12.27;;;;;;;4.88;36.69;100677.25;5418860;32;34363;-61
2022/03/03 00:06:51;;;;;;;25.43;12.17;;;;;;;4.93;36.90;100673.75;5387278;32;37131;-63
2022/03/03 00:09:53;;;;;;;26.23;12.30;;;;;;;4.60;37.72;100676.69;5414035;32;34626;-72
2022/03/03 00:12:55;;;;;;;24.73;12.13;;;;;;;4.50;38.28;100684.59;5415172;32;35360;-78
2022/03/03 00:15:57;;;;;;;23.47;11.17;;;;;;;5.09;37.10;100670.97;5395086;32;34950;-79
2022/03/03 00:19:00;;;;;;;25.87;11.37;;;;;;;3.63;39.99;100680.09;5415113;32;35399;-62
2022/03/03 00:22:02;;;;;;;26.07;11.50;;;;;;;4.44;39.10;100687.25;5412746;32;34916;-79
2022/03/03 00:25:05;;;;;;;25.47;11.80;;;;;;;4.24;39.33;100683.09;5413733;32;33947;-62
2022/03/03 00:28:07;;;;;;;25.80;11.82;;;;;;;4.80;38.11;100684.31;5398284;32;34090;-62
2022/03/03 00:31:10;;;;;;;23.50;11.10;;;;;;;5.25;37.51;100674.22;5396322;32;36485;-63
2022/03/03 00:34:13;;;;;;;22.63;11.63;;;;;;;4.98;38.07;100675.44;5396855;32;34699;-62
2022/03/03 00:37:17;;;;;;;30.77;11.50;;;;;;;4.20;39.87;100676.22;5400274;32;34139;-71
2022/03/03 00:40:19;;;;;;;32.08;12.35;;;;;;;4.55;39.04;100680.22;5392222;32;35120;-72
2022/03/03 00:43:21;;;;;;;23.80;11.13;;;;;;;4.48;39.23;100676.81;5371823;32;35422;-78
2022/03/03 00:46:27;;;;;;;23.50;11.93;;;;;;;4.00;40.02;100678.97;5425893;32;34258;-79
2022/03/03 00:49:29;;;;;;;27.27;11.67;;;;;;;4.07;40.34;100674.59;5416292;32;34559;-79
2022/03/03 00:52:31;;;;;;;22.03;11.00;;;;;;;3.77;41.17;100675.66;5430367;32;34025;-63
2022/03/03 00:55:33;;;;;;;32.30;11.70;;;;;;;3.54;41.39;100668.00;5388821;32;34738;-78
2022/03/03 00:58:35;;;;;;;25.00;11.47;;;;;;;4.10;40.59;100668.47;5393489;32;35013;-62
2022/03/03 01:01:38;;;;;;;27.37;11.90;;;;;;;3.58;41.59;100672.31;5405268;32;34954;-63
2022/03/03 01:04:40;;;;;;;26.17;12.13;;;;;;;3.19;42.65;100674.25;5381463;32;45195;-79
2022/03/03 01:07:42;;;;;;;26.53;12.47;;;;;;;3.59;41.81;100666.25;5398853;32;34393;-80
2022/03/03 01:10:45;;;;;;;25.80;12.80;;;;;;;3.17;42.71;100667.34;5414358;32;34375;-62
2022/03/03 01:13:47;;;;;;;27.17;12.67;;;;;;;3.04;43.20;100663.06;5407622;32;34398;-62
2022/03/03 01:16:50;;;;;;;29.33;12.57;;;;;;;3.11;43.08;100657.84;5387856;32;34543;-62
2022/03/03 01:19:52;;;;;;;28.00;12.43;;;;;;;3.45;42.22;100652.47;5399739;32;34764;-71
2022/03/03 01:22:55;;;;;;;22.57;10.20;;;;;;;3.44;42.04;100648.16;5398676;32;34895;-62
2022/03/03 01:25:57;;;;;;;23.47;11.00;;;;;;;4.70;41.21;100633.22;5370805;32;35376;-78
2022/03/03 01:28:59;;;;;;;22.63;11.13;;;;;;;4.35;41.81;100631.81;5415678;32;34011;-62
2022/03/03 01:32:01;;;;;;;25.10;11.33;;;;;;;4.36;41.70;100627.47;5421129;32;34885;-78
2022/03/03 01:35:04;;;;;;;23.50;11.30;;;;;;;4.39;40.87;100631.81;5417608;32;34092;-62
2022/03/03 01:38:06;;;;;;;21.90;11.50;;;;;;;4.34;40.93;100631.84;5416729;32;34946;-79
2022/03/03 01:41:08;;;;;;;26.20;12.73;;;;;;;4.31;41.10;100645.72;5380010;32;34919;-62
2022/03/03 01:44:11;;;;;;;26.90;12.47;;;;;;;3.58;43.07;100633.34;5404199;32;44791;-63
2022/03/03 01:47:22;;;;;;;25.80;12.10;;;;;;;3.16;44.17;100642.25;5398845;32;34553;-63
2022/03/03 01:50:24;;;;;;;25.83;10.87;;;;;;;3.17;44.92;100633.59;5418611;32;34725;-72
2022/03/03 01:53:26;;;;;;;22.43;11.20;;;;;;;3.89;43.77;100617.50;5419643;32;33038;-61
2022/03/03 01:56:29;;;;;;;22.53;10.90;;;;;;;3.77;44.06;100624.53;5417146;32;34237;-79
2022/03/03 01:59:31;;;;;;;21.77;9.70;;;;;;;4.22;43.50;100601.59;5393849;32;34905;-62
2022/03/03 02:02:33;;;;;;;22.17;10.83;;;;;;;4.53;42.80;100606.50;5395632;32;34382;-62
2022/03/03 02:05:36;;;;;;;23.97;10.80;;;;;;;4.87;41.32;100589.59;5406186;32;34752;-63
2022/03/03 02:08:38;;;;;;;18.67;9.43;;;;;;;4.42;42.65;100604.00;5394654;32;34440;-72
2022/03/03 02:11:41;;;;;;;27.97;11.47;;;;;;;4.83;41.76;100600.06;5436027;32;45149;-79
2022/03/03 02:14:45;;;;;;;23.83;10.93;;;;;;;5.08;41.07;100600.59;5424109;32;36623;-79
2022/03/03 02:17:47;;;;;;;21.77;11.60;;;;;;;5.41;39.99;100596.69;5432608;32;35454;-62
2022/03/03 02:20:49;;;;;;;22.23;11.63;;;;;;;5.18;40.35;100596.16;5396555;32;33924;-80
2022/03/03 02:23:52;;;;;;;25.87;11.67;;;;;;;3.83;43.28;100594.16;5417718;32;35227;-79
2022/03/03 02:26:54;;;;;;;24.33;11.63;;;;;;;4.47;41.93;100598.75;5404461;32;35432;-61
2022/03/03 02:29:57;;;;;;;24.70;11.97;;;;;;;4.68;41.79;100595.03;5392799;32;34970;-71
2022/03/03 02:33:00;;;;;;;26.98;12.48;;;;;;;4.41;42.07;100591.88;5418306;32;34641;-63
2022/03/03 02:36:22;;;;;;;26.97;12.67;;;;;;;4.03;42.82;100600.91;5405950;32;34750;-62
2022/03/03 02:39:24;;;;;;;29.63;13.03;;;;;;;3.60;43.64;100590.00;5398171;32;35468;-80
2022/03/03 02:42:27;;;;;;;22.77;11.83;;;;;;;4.64;40.37;100589.03;5387520;32;34338;-71
2022/03/03 02:45:29;;;;;;;25.47;11.70;;;;;;;5.08;39.16;100585.84;5405132;32;34690;-62
2022/03/03 02:48:31;;;;;;;27.63;13.10;;;;;;;4.94;39.56;100592.13;5419305;32;33927;-79
2022/03/03 02:51:33;;;;;;;25.13;12.87;;;;;;;4.73;39.42;100588.03;5414451;32;35984;-62
2022/03/03 02:54:36;;;;;;;28.47;13.50;;;;;;;4.47;39.53;100588.34;5423196;32;35351;-61
2022/03/03 02:57:53;;;;;;;25.67;12.93;;;;;;;4.77;39.68;100579.31;5416949;32;34788;-64
2022/03/03 03:00:56;;;;;;;28.47;13.40;;;;;;;4.54;39.84;100575.25;5399711;32;34849;-62
2022/03/03 03:03:58;;;;;;;29.53;13.37;;;;;;;3.80;41.96;100577.72;5425242;32;34675;-62
2022/03/03 03:07:00;;;;;;;29.87;14.40;;;;;;;3.09;43.98;100586.88;5410965;32;36209;-62
2022/03/03 03:10:04;;;;;;;30.63;14.57;;;;;;;3.67;42.49;100581.31;5420443;32;34706;-62
2022/03/03 03:13:07;;;;;;;30.37;14.05;;;;;;;3.55;41.92;100568.41;5409988;32;34186;-63
2022/03/03 03:16:09;;;;;;;30.48;14.77;;;;;;;3.34;42.14;100578.91;5394149;32;35179;-78
2022/03/03 03:19:11;;;;;;;29.83;14.53;;;;;;;3.26;43.90;100577.22;5410756;32;45078;-62
2022/03/03 03:22:14;;;;;;;28.67;14.73;;;;;;;2.82;45.14;100579.19;5402386;32;34987;-78
2022/03/03 03:25:16;;;;;;;30.37;14.63;;;;;;;2.93;44.75;100574.84;5419742;32;34308;-62
2022/03/03 03:28:19;;;;;;;31.57;14.30;;;;;;;2.35;46.74;100581.09;5407475;32;34251;-62
2022/03/03 03:31:21;;;;;;;35.45;15.40;;;;;;;3.03;45.06;100580.81;5428532;32;34811;-70
2022/03/03 03:34:24;;;;;;;29.03;15.03;;;;;;;2.90;45.09;100577.47;5420672;32;34344;-78
2022/03/03 03:37:31;;;;;;;36.13;17.03;;;;;;;2.10;47.49;100580.28;5428369;32;34014;-79
2022/03/03 03:40:33;;;;;;;35.60;16.80;;;;;;;2.37;47.14;100571.56;5402712;32;35673;-79
2022/03/03 03:43:35;;;;;;;35.23;16.83;;;;;;;2.60;46.76;100574.09;5416927;32;34039;-72
2022/03/03 03:46:37;;;;;;;35.73;17.43;;;;;;;1.72;48.95;100574.25;5405667;32;34058;-63
2022/03/03 03:49:40;;;;;;;40.50;18.00;;;;;;;1.85;48.83;100576.84;5389497;32;38125;-62
2022/03/03 03:52:42;;;;;;;33.83;17.17;;;;;;;1.51;49.72;100580.31;5420399;32;34375;-62
2022/03/03 03:55:44;;;;;;;38.57;17.93;;;;;;;1.36;49.84;100570.81;5400806;32;35104;-61
2022/03/03 03:58:47;;;;;;;42.20;18.57;;;;;;;1.39;50.09;100575.13;5411320;32;35123;-78
2022/03/03 04:01:49;;;;;;;38.20;16.87;;;;;;;1.48;50.19;100580.28;5413411;32;34963;-62
2022/03/03 04:04:52;;;;;;;39.93;16.70;;;;;;;1.03;51.58;100588.00;5412083;32;34821;-62
2022/03/03 04:07:54;;;;;;;39.43;17.93;;;;;;;2.69;47.18;100576.66;5404645;32;35455;-78
2022/03/03 04:10:56;;;;;;;37.50;17.07;;;;;;;2.74;46.89;100566.25;5421775;32;34128;-64
2022/03/03 04:13:58;;;;;;;33.70;16.73;;;;;;;1.31;50.88;100556.97;5434875;32;34853;-80
2022/03/03 04:17:01;;;;;;;37.20;17.13;;;;;;;1.47;50.61;100571.66;5403289;32;34170;-62
2022/03/03 04:20:04;;;;;;;37.67;17.60;;;;;;;1.56;50.34;100565.63;5402327;32;34196;-78
2022/03/03 04:23:06;;;;;;;37.17;17.23;;;;;;;1.67;50.33;100563.03;5388646;32;34200;-79
2022/03/03 04:26:09;;;;;;;40.23;18.03;;;;;;;1.97;49.28;100560.44;5397627;32;34878;-71
2022/03/03 04:29:11;;;;;;;34.20;17.97;;;;;;;1.54;50.43;100563.03;5410798;32;44683;-78
2022/03/03 04:32:14;;;;;;;37.80;18.90;;;;;;;1.28;51.80;100562.13;5389398;32;33993;-81
2022/03/03 04:35:16;;;;;;;41.23;17.97;;;;;;;0.88;52.93;100561.19;5417086;32;34162;-79
2022/03/03 04:38:19;;;;;;;40.63;19.27;;;;;;;0.68;53.42;100571.47;5416863;32;35031;-79
2022/03/03 04:41:21;;;;;;;39.47;17.73;;;;;;;0.90;53.21;100568.13;5383275;32;34874;-79
2022/03/03 04:44:23;;;;;;;39.70;18.77;;;;;;;0.69;53.70;100570.62;5386360;32;33955;-78
2022/03/03 04:47:25;;;;;;;36.07;18.77;;;;;;;1.19;52.36;100569.91;5408969;32;35400;-78
2022/03/03 04:50:28;;;;;;;40.87;18.87;;;;;;;1.11;52.12;100561.25;5424716;32;34975;-78
2022/03/03 04:53:30;;;;;;;41.27;18.03;;;;;;;0.31;54.13;100565.25;5418165;32;34652;-62
2022/03/03 04:56:33;;;;;;;39.97;18.50;;;;;;;1.19;52.11;100570.78;5410747;32;34805;-78
2022/03/03 04:59:35;;;;;;;33.60;18.00;;;;;;;1.57;51.11;100570.81;5403446;32;34075;-72
2022/03/03 05:02:37;;;;;;;45.87;19.10;;;;;;;2.37;48.81;100544.78;5393254;32;34413;-71
2022/03/03 05:05:40;;;;;;;42.10;18.53;;;;;;;2.21;48.58;100556.94;5412043;32;44804;-61
2022/03/03 05:08:42;;;;;;;39.73;18.53;;;;;;;1.43;51.03;100554.41;5377000;32;34887;-79
2022/03/03 05:11:44;;;;;;;39.23;18.83;;;;;;;1.51;50.91;100557.84;5423814;32;34977;-62
2022/03/03 05:14:46;;;;;;;36.57;18.67;;;;;;;1.61;51.30;100562.19;5418341;32;34117;-79
2022/03/03 05:17:48;;;;;;;35.57;17.43;;;;;;;2.56;48.54;100554.22;5429089;32;35315;-79
2022/03/03 05:20:51;;;;;;;33.43;16.60;;;;;;;2.20;49.26;100556.94;5417064;32;34911;-62
2022/03/03 05:23:58;;;;;;;34.27;17.30;;;;;;;2.16;50.11;100559.53;5418717;32;35333;-80
2022/03/03 05:27:00;;;;;;;33.70;18.25;;;;;;;1.61;51.40;100571.66;5420050;32;35127;-78
2022/03/03 05:30:04;;;;;;;35.47;17.77;;;;;;;1.60;51.31;100572.53;5408991;32;34156;-62
2022/03/03 05:33:07;;;;;;;39.80;19.27;;;;;;;0.77;53.84;100580.16;5420357;32;34759;-62
2022/03/03 05:36:10;;;;;;;37.17;17.70;;;;;;;0.97;53.68;100569.00;5403829;32;33958;-63
2022/03/03 05:39:14;;;;;;;39.00;18.52;;;;;;;1.23;52.91;100576.84;5416476;32;44613;-78
2022/03/03 05:42:18;;;;;;;42.40;17.87;;;;;;;1.62;52.10;100561.31;5412444;32;35030;-79
2022/03/03 05:45:20;;;;;;;38.30;16.57;;;;;;;1.89;50.93;100562.19;5402659;32;35245;-62
2022/03/03 05:48:23;;;;;;;32.10;15.93;;;;;;;2.44;49.97;100557.72;5416627;32;35192;-80
2022/03/03 05:51:25;;;;;;;42.43;18.30;;;;;;;0.74;53.42;100572.37;5389661;32;34889;-79
2022/03/03 05:54:28;;;;;;;35.27;16.37;;;;;;;0.58;55.26;100574.88;5400711;32;34125;-71
2022/03/03 05:57:36;;;;;;;41.17;16.60;;;;;;;1.21;53.68;100578.53;5391686;32;34225;-72
2022/03/03 06:00:38;;;;;;;37.73;17.07;;;;;;;0.82;54.31;100574.97;5424964;32;34046;-62
2022/03/03 06:03:41;;;;;;;37.37;16.57;;;;;;;0.87;54.39;100572.41;5417373;32;44967;-62
2022/03/03 06:07:07;;;;;;;37.80;17.50;;;;;;;1.26;52.79;100571.63;5389234;32;34402;-62
2022/03/03 06:10:09;;;;;;;36.60;15.40;;;;;;;2.39;50.14;100569.00;5402917;32;37491;-79
2022/03/03 06:13:22;;;;;;;43.93;18.30;;;;;;;3.55;46.97;100565.78;5396704;32;34556;-63
2022/03/03 06:16:25;;;;;;;32.17;16.00;;;;;;;2.86;47.78;100578.34;5397237;32;34778;-63
2022/03/03 06:19:29;;;;;;;36.08;16.40;;;;;;;3.15;47.57;100573.81;5402197;32;34551;-71
2022/03/03 06:22:31;;;;;;;37.58;18.42;;;;;;;4.20;45.94;100572.16;5391760;32;34840;-79
2022/03/03 06:25:34;;;;;;;35.57;16.60;;;;;;;4.59;44.17;100573.44;5410584;32;35264;-80
2022/03/03 06:28:36;;;;;;;35.67;17.47;;;;;;;3.26;47.38;100582.44;5394015;32;34099;-79
2022/03/03 06:31:38;;;;;;;35.30;17.77;;;;;;;2.88;48.13;100584.38;5408049;32;32721;-62
2022/03/03 06:34:41;;;;;;;36.03;17.43;;;;;;;3.66;46.84;100576.94;5411332;32;45469;-62
2022/03/03 06:37:43;;;;;;;35.53;18.17;;;;;;;4.87;43.48;100576.56;5418001;32;37089;-61
2022/03/03 06:40:45;;;;;;;36.17;18.30;;;;;;;5.61;41.80;100588.56;5371682;32;34845;-77
2022/03/03 06:43:47;;;;;;;33.83;17.80;;;;;;;6.11;40.48;100581.66;5398182;32;34832;-63
2022/03/03 06:46:50;;;;;;;29.53;16.57;;;;;;;5.83;41.34;100586.47;5411593;32;36129;-62
2022/03/03 06:49:53;;;;;;;35.70;17.75;;;;;;;6.98;38.49;100577.38;5391928;32;34217;-71
2022/03/03 06:52:55;;;;;;;36.73;18.80;;;;;;;7.09;37.88;100578.00;5417925;32;34335;-72
2022/03/03 06:56:02;;;;;;;35.20;18.10;;;;;;;5.66;40.87;100581.50;5411821;32;35636;-70
2022/03/03 06:59:05;;;;;;;38.10;19.33;;;;;;;5.32;41.83;100589.84;5398131;32;34186;-75
2022/03/03 07:02:07;;;;;;;35.73;19.57;;;;;;;6.37;39.53;100587.28;5408366;32;34193;-70
2022/03/03 07:05:12;;;;;;;38.57;18.30;;;;;;;6.18;39.52;100588.50;5415997;32;45643;-73
2022/03/03 07:08:14;;;;;;;37.43;19.03;;;;;;;7.48;36.62;100568.41;5411601;32;34188;-77
2022/03/03 07:11:17;;;;;;;31.00;17.13;;;;;;;7.03;35.83;100584.22;5394896;32;34819;-87
2022/03/03 07:14:19;;;;;;;37.60;18.20;;;;;;;9.02;33.32;100566.06;5409983;32;35946;-66
2022/03/03 07:17:34;;;;;;;34.43;19.47;;;;;;;8.84;33.40;100570.09;5409188;32;35310;-69
2022/03/03 07:20:39;;;;;;;37.67;19.57;;;;;;;7.64;35.60;100578.50;5407220;32;34298;-75
2022/03/03 07:23:48;;;;;;;46.17;19.40;;;;;;;7.06;37.39;100581.53;5410252;32;44871;-76
2022/03/03 07:26:51;;;;;;;33.80;19.03;;;;;;;7.20;35.97;100568.16;5412948;32;33106;-80
2022/03/03 07:29:58;;;;;;;42.15;18.73;;;;;;;9.67;31.97;100560.53;5412975;32;33960;-66
2022/03/03 07:33:07;;;;;;;33.23;19.43;;;;;;;9.14;32.54;100570.06;5408924;32;33973;-69
2022/03/03 07:36:12;;;;;;;32.40;18.33;;;;;;;9.92;31.31;100562.34;5410560;32;34107;-77
2022/03/03 07:39:16;;;;;;;34.00;19.47;;;;;;;9.60;31.74;100564.28;5386372;32;44589;-80
2022/03/03 07:42:19;;;;;;;35.03;18.57;;;;;;;9.00;31.77;100557.38;5390753;32;35437;-70
2022/03/03 07:45:22;;;;;;;33.95;18.83;;;;;;;11.18;29.27;100546.38;5411933;32;35161;-71
2022/03/03 07:48:25;;;;;;;38.10;19.45;;;;;;;11.55;28.36;100540.53;5413184;32;34082;-73
2022/03/03 07:51:28;;;;;;;34.60;18.95;;;;;;;11.16;28.71;100535.06;5401960;32;35412;-64
2022/03/03 07:54:30;;;;;;;34.73;19.83;;;;;;;10.85;29.58;100540.66;5408217;32;35325;-62
2022/03/03 07:57:56;;;;;;;44.10;20.65;;;;;;;10.98;28.68;100541.91;5405792;32;33882;-62
2022/03/03 08:01:00;;;;;;;37.70;21.20;;;;;;;9.10;31.95;100545.72;5423806;32;34224;-62
2022/03/03 08:04:03;;;;;;;37.83;21.17;;;;;;;7.09;35.82;100558.84;5407462;32;34035;-65
2022/03/03 08:07:09;;;;;;;39.50;20.50;;;;;;;7.28;36.08;100552.31;5427772;32;34162;-64
2022/03/03 08:10:13;;;;;;;36.67;19.50;;;;;;;7.56;34.83;100545.53;5403622;32;44447;-62
2022/03/03 08:13:17;;;;;;;42.00;20.77;;;;;;;6.06;38.35;100552.22;5418319;32;35339;-64
2022/03/03 08:16:19;;;;;;;36.05;18.92;;;;;;;5.63;39.86;100551.16;5404951;32;35357;-66
2022/03/03 08:19:22;;;;;;;39.20;19.50;;;;;;;5.95;39.18;100550.62;5404422;32;34210;-65
2022/03/03 08:22:24;;;;;;;40.10;18.30;;;;;;;5.58;40.03;100546.88;5402574;32;34010;-63
2022/03/03 08:25:27;;;;;;;36.33;17.60;;;;;;;5.63;40.23;100547.69;5404117;32;35327;-65
2022/03/03 08:28:31;;;;;;;34.03;18.70;;;;;;;7.23;36.44;100528.03;5419748;32;35519;-65
2022/03/03 08:31:47;;;;;;;33.23;18.57;;;;;;;7.63;35.87;100521.84;5393711;32;34036;-63
2022/03/03 08:34:58;;;;;;;42.57;18.77;;;;;;;7.26;36.73;100520.97;5406412;32;36376;-67
2022/03/03 08:38:09;;;;;;;37.27;18.80;;;;;;;6.09;39.34;100529.50;5429915;32;33895;-61
2022/03/03 08:41:13;;;;;;;44.93;20.13;;;;;;;5.89;39.67;100531.59;5402615;32;46613;-62
2022/03/03 08:44:17;;;;;;;28.33;14.43;;;;;;;5.81;39.97;100531.72;5425344;32;35553;-63
2022/03/03 08:47:22;;;;;;;25.35;13.77;;;;;;;6.63;38.08;100512.78;5398225;32;34185;-63
2022/03/03 08:50:27;;;;;;;22.27;12.47;;;;;;;6.73;37.73;100506.50;5407934;32;35661;-61
2022/03/03 08:53:30;;;;;;;29.73;14.07;;;;;;;6.07;39.05;100513.03;5407509;32;33979;-62
2022/03/03 08:56:33;;;;;;;26.00;13.33;;;;;;;6.74;37.40;100510.81;5418640;32;34551;-61
2022/03/03 08:59:35;;;;;;;25.40;12.03;;;;;;;7.24;36.43;100509.69;5424150;32;33751;-62
2022/03/03 09:02:40;;;;;;;27.13;14.30;;;;;;;8.23;34.24;100510.66;5420411;32;33894;-61
2022/03/03 09:05:42;;;;;;;29.30;12.73;;;;;;;7.42;35.44;100518.00;5397015;32;44882;-63
2022/03/03 09:08:45;;;;;;;23.40;13.57;;;;;;;6.54;37.67;100524.28;5414918;32;37830;-62
2022/03/03 09:11:48;;;;;;;28.02;13.20;;;;;;;6.65;37.54;100526.69;5417115;32;35316;-62
2022/03/03 09:14:50;;;;;;;27.03;12.57;;;;;;;7.93;34.90;100517.59;5410610;32;37406;-61
2022/03/03 09:17:52;;;;;;;23.77;12.60;;;;;;;7.99;34.34;100523.53;5413551;32;34210;-62
2022/03/03 09:20:54;;;;;;;27.27;13.07;;;;;;;6.65;36.39;100522.31;5408618;32;34143;-61
2022/03/03 09:23:56;;;;;;;25.13;14.27;;;;;;;7.98;34.36;100511.31;5415745;32;35241;-62
2022/03/03 09:26:58;;;;;;;28.17;14.33;;;;;;;7.10;35.67;100516.13;5422661;32;34087;-61
2022/03/03 09:30:01;;;;;;;25.10;13.80;;;;;;;6.84;36.48;100517.56;5417860;32;34166;-61
2022/03/03 09:33:05;;;;;;;22.00;11.60;;;;;;;7.74;34.75;100502.38;5399857;32;34032;-62
2022/03/03 09:36:08;;;;;;;25.85;12.25;;;;;;;7.07;35.17;100504.84;5413368;32;34441;-63
2022/03/03 09:39:10;;;;;;;27.92;11.65;;;;;;;7.30;34.93;100506.06;5409894;32;44473;-64
2022/03/03 09:42:13;;;;;;;20.47;9.63;;;;;;;8.70;32.75;100500.66;5397953;32;35414;-61
2022/03/03 09:45:15;;;;;;;27.23;13.03;;;;;;;8.32;32.89;100510.44;5415674;32;34340;-63
2022/03/03 09:48:17;;;;;;;26.47;12.67;;;;;;;7.76;34.44;100510.16;5418974;32;34041;-63
2022/03/03 09:51:20;;;;;;;27.40;12.87;;;;;;;7.47;34.91;100496.06;5399142;32;34110;-64
2022/03/03 09:54:22;;;;;;;24.67;12.43;;;;;;;8.43;33.72;100502.28;5409252;32;34135;-62
2022/03/03 09:57:26;;;;;;;27.43;14.17;;;;;;;8.41;33.54;100499.72;5416242;32;34497;-63
2022/03/03 10:00:33;;;;;;;24.65;11.30;;;;;;;8.30;33.70;100492.09;5402093;32;34095;-65
2022/03/03 10:03:37;;;;;;;24.30;12.23;;;;;;;8.94;32.45;100497.25;5412244;32;35324;-62
2022/03/03 10:06:41;;;;;;;26.70;11.83;;;;;;;7.02;35.61;100500.63;5408731;32;46227;-63
2022/03/03 10:10:05;;;;;;;26.95;12.35;;;;;;;7.55;34.71;100501.97;5400553;32;35828;-60
2022/03/03 10:13:09;;;;;;;22.00;10.83;;;;;;;8.24;33.75;100502.75;5426516;32;34928;-67
2022/03/03 10:16:23;;;;;;;22.83;12.37;;;;;;;10.24;30.37;100487.69;5418809;32;44910;-62
2022/03/03 10:19:25;;;;;;;22.90;12.43;;;;;;;12.23;27.49;100482.38;5418728;32;35231;-64
2022/03/03 10:23:04;;;;;;;21.00;12.40;;;;;;;15.67;22.95;100461.09;5389554;32;33961;-64
2022/03/03 10:26:08;;;;;;;19.97;11.23;;;;;;;14.65;23.98;100463.41;5365053;32;33573;-64
2022/03/03 10:29:18;;;;;;;21.63;11.53;;;;;;;17.86;19.47;100450.72;5412168;32;44951;-61
2022/03/03 10:32:24;;;;;;;19.67;11.73;;;;;;;18.31;18.71;100453.81;5403026;32;34005;-69
2022/03/03 10:35:27;;;;;;;21.13;11.83;;;;;;;16.46;20.94;100454.53;5411612;32;35149;-63
2022/03/03 10:38:29;;;;;;;22.50;12.95;;;;;;;16.88;20.06;100452.84;5406678;32;36497;-67
2022/03/03 10:41:47;;;;;;;19.55;12.13;;;;;;;16.53;20.19;100454.06;5374788;32;34106;-67
2022/03/03 10:45:11;;;;;;;20.17;12.03;;;;;;;18.27;18.73;100439.00;5399549;32;32601;-66
2022/03/03 10:48:21;;;;;;;21.40;11.73;;;;;;;17.09;19.60;100424.88;5405998;32;45106;-68
2022/03/03 10:51:26;;;;;;;22.60;12.23;;;;;;;15.45;21.50;100440.25;5409385;32;35548;-62
2022/03/03 10:54:28;;;;;;;21.30;11.73;;;;;;;15.11;22.13;100433.41;5384860;32;33946;-63
2022/03/03 10:58:01;;;;;;;30.50;12.32;;;;;;;15.00;22.02;100438.47;5412032;32;44573;-62
2022/03/03 11:01:04;;;;;;;20.67;12.20;;;;;;;11.98;26.25;100448.34;5414680;32;34001;-65
2022/03/03 11:04:06;;;;;;;22.70;12.43;;;;;;;14.03;23.89;100428.78;5403235;32;34121;-63
2022/03/03 11:07:09;;;;;;;27.80;13.57;;;;;;;14.76;22.48;100429.28;5411676;32;36072;-62
2022/03/03 11:10:17;;;;;;;23.27;13.60;;;;;;;14.78;23.21;100420.31;5405192;32;44622;-61
2022/03/03 11:13:19;;;;;;;22.33;13.50;;;;;;;14.88;23.00;100418.84;5423398;32;32894;-64
2022/03/03 11:16:25;;;;;;;23.60;12.52;;;;;;;16.36;21.37;100400.34;5420820;32;35390;-63
2022/03/03 11:19:29;;;;;;;24.57;13.87;;;;;;;16.01;21.64;100400.75;5401413;32;34660;-63
2022/03/03 11:22:32;;;;;;;25.53;13.60;;;;;;;13.93;23.38;100412.56;5423647;32;35326;-65
2022/03/03 11:25:35;;;;;;;22.13;12.95;;;;;;;11.93;27.07;100412.53;5389635;32;35173;-62
2022/03/03 11:28:39;;;;;;;25.40;12.83;;;;;;;10.96;28.66;100407.00;5422424;32;33315;-63
2022/03/03 11:31:44;;;;;;;30.53;14.10;;;;;;;13.00;25.86;100396.97;5414848;32;44889;-63
2022/03/03 11:34:49;;;;;;;28.87;13.90;;;;;;;13.50;25.21;100387.50;5411113;32;33998;-65
2022/03/03 11:37:51;;;;;;;23.77;11.63;;;;;;;12.74;26.25;100400.03;5413198;32;34424;-63
2022/03/03 11:40:59;;;;;;;35.80;12.80;;;;;;;12.35;27.25;100397.50;5400109;32;34207;-62
2022/03/03 11:44:04;;;;;;;24.13;12.10;;;;;;;12.96;26.21;100389.31;5407985;32;33714;-68
2022/03/03 11:47:20;;;;;;;22.93;11.37;;;;;;;10.81;29.16;100384.78;5419953;32;35657;-69
2022/03/03 11:50:25;;;;;;;22.43;11.27;;;;;;;11.81;27.83;100378.84;5428126;32;33992;-65
2022/03/03 11:53:27;;;;;;;22.70;11.53;;;;;;;11.53;27.92;100373.06;5405393;32;34190;-64
2022/03/03 11:56:29;;;;;;;20.80;10.70;;;;;;;11.24;28.50;100382.19;5400455;32;35171;-65
2022/03/03 11:59:36;;;;;;;21.83;11.40;;;;;;;10.48;29.87;100376.44;5425963;32;34233;-61
2022/03/03 12:02:56;;;;;;;21.93;10.80;;;;;;;10.43;30.05;100372.28;5399869;32;34136;-64
2022/03/03 12:06:13;;;;;;;20.43;10.53;;;;;;;10.22;30.08;100374.78;5415553;32;36161;-72
2022/03/03 12:09:30;;;;;;;20.07;11.07;;;;;;;11.06;29.22;100368.84;5421062;32;44318;-71
2022/03/03 12:12:32;;;;;;;22.37;11.40;;;;;;;10.41;30.25;100364.47;5389946;32;34528;-71
2022/03/03 12:15:37;;;;;;;23.13;11.17;;;;;;;10.23;30.62;100360.78;5408676;32;32905;-72
2022/03/03 12:18:45;;;;;;;18.90;10.47;;;;;;;10.61;30.11;100357.56;5394832;32;47129;-79
2022/03/03 12:21:48;;;;;;;18.33;10.57;;;;;;;12.14;27.28;100346.63;5382848;32;35429;-68
2022/03/03 12:24:51;;;;;;;20.80;10.57;;;;;;;11.50;27.92;100344.22;5415903;32;33329;-66
2022/03/03 12:28:22;;;;;;;19.60;9.80;;;;;;;11.34;28.51;100349.31;5408443;32;35338;-67
2022/03/03 12:31:29;;;;;;;18.33;9.93;;;;;;;13.58;25.52;100342.22;5417013;32;35217;-73
2022/03/03 12:34:32;;;;;;;18.00;10.10;;;;;;;12.44;26.70;100339.09;5400257;32;33927;-67
2022/03/03 12:37:40;;;;;;;18.63;11.10;;;;;;;11.98;27.42;100342.97;5415135;32;34387;-71
2022/03/03 12:40:43;;;;;;;25.53;11.33;;;;;;;12.70;26.06;100338.69;5381420;32;46107;-75
2022/03/03 12:43:46;;;;;;;20.27;9.95;;;;;;;13.42;25.88;100337.75;5393787;32;34170;-70
2022/03/03 12:46:48;;;;;;;21.90;10.20;;;;;;;13.30;24.94;100326.97;5409162;32;35549;-68
2022/03/03 12:49:51;;;;;;;21.27;10.40;;;;;;;13.55;24.61;100338.81;5408740;32;34628;-67
2022/03/03 12:52:55;;;;;;;20.40;11.03;;;;;;;13.45;25.12;100326.16;5422134;32;34346;-65
2022/03/03 12:55:57;;;;;;;22.40;11.33;;;;;;;12.82;25.92;100320.56;5419446;32;34821;-74
2022/03/03 12:59:09;;;;;;;19.40;10.77;;;;;;;13.46;25.24;100322.59;5407375;32;35166;-71
2022/03/03 13:02:11;;;;;;;19.23;10.73;;;;;;;13.59;25.15;100306.94;5399542;32;44431;-80
2022/03/03 13:05:30;;;;;;;20.33;12.30;;;;;;;17.05;21.30;100295.91;5396186;32;34109;-91
2022/03/03 13:08:35;;;;;;;17.60;10.70;;;;;;;18.12;19.78;100297.31;5411400;32;34273;-71
2022/03/03 13:11:37;;;;;;;18.20;11.23;;;;;;;20.33;17.42;100286.62;5408337;32;34067;-79
2022/03/03 13:14:40;;;;;;;19.70;12.00;;;;;;;16.39;20.92;100296.72;5410343;32;45372;-68
2022/03/03 13:17:57;;;;;;;23.92;12.48;;;;;;;14.87;22.83;100302.50;5395779;32;34049;-69
2022/03/03 13:21:06;;;;;;;19.73;11.27;;;;;;;15.43;22.05;100291.19;5393100;32;34360;-70
2022/03/03 13:24:09;;;;;;;19.17;11.43;;;;;;;18.22;19.28;100284.19;5423580;32;34248;-75
2022/03/03 13:27:12;;;;;;;21.90;12.40;;;;;;;18.49;19.11;100276.03;5389708;32;43824;-69
2022/03/03 13:30:15;;;;;;;23.30;12.37;;;;;;;18.34;18.96;100272.66;5416091;32;34086;-67
2022/03/03 13:33:18;;;;;;;20.60;12.00;;;;;;;12.63;25.95;100294.25;5407697;32;34198;-74
2022/03/03 13:36:28;;;;;;;20.42;11.35;;;;;;;15.47;22.28;100281.28;5403477;32;35703;-67
2022/03/03 13:39:33;;;;;;;24.80;11.97;;;;;;;16.14;21.84;100269.12;5402637;32;35648;-72
2022/03/03 13:42:38;;;;;;;21.00;12.03;;;;;;;15.80;22.17;100267.78;5377415;32;33328;-68
2022/03/03 13:45:45;;;;;;;21.87;13.53;;;;;;;14.73;23.22;100271.56;5429862;32;44737;-63
2022/03/03 13:48:47;;;;;;;22.50;12.90;;;;;;;14.53;23.44;100275.34;5423324;32;34167;-64
2022/03/03 13:52:07;;;;;;;23.35;12.75;;;;;;;12.27;26.53;100278.41;5424231;32;34313;-69
2022/03/03 13:55:12;;;;;;;22.60;12.13;;;;;;;13.19;25.41;100272.03;5425224;32;34176;-75
2022/03/03 13:58:23;;;;;;;21.57;12.13;;;;;;;14.02;24.64;100266.72;5404614;32;44281;-72
2022/03/03 14:01:27;;;;;;;19.10;10.97;;;;;;;15.62;22.28;100255.66;5414317;32;34058;-70
2022/03/03 14:04:30;;;;;;;19.63;10.97;;;;;;;17.80;19.57;100249.09;5412759;32;35334;-70